Time;durP1;ratioP1;P1;durP2;ratioP2;P2;SDS_P1;SDS_P2;PMS_P1;PMS_P2;Temp;Humidity;BMP_temperature;BMP_pressure;BME280_temperature;BME280_humidity;BME280_pressure;Samples;Min_cycle;Max_cycle;Signal;HPM_P1;HPM_P2
2021/07/30 00:01:39;;;;;;;7.50;3.30;;;;;;;;;;5001846;28;20038;-47
2021/07/30 00:04:05;;;;;;;;;;;;;;;;;;5005423;28;20094;-52
2021/07/30 00:06:32;;;;;;;7.63;3.10;;;;;;;;;;5000650;28;19917;-52
2021/07/30 00:08:58;;;;;;;10.35;3.67;;;;;;;;;;5005571;28;20072;-51
2021/07/30 00:11:25;;;;;;;13.88;3.60;;;;;;;;;;5000410;28;20038;-50
2021/07/30 00:13:52;;;;;;;9.60;4.00;;;;;;;;;;5006084;28;20115;-53
2021/07/30 00:16:20;;;;;;;9.00;3.70;;;;;;;;;;5001881;28;20056;-52
2021/07/30 00:18:47;;;;;;;12.63;3.73;;;;;;;;;;5022095;28;20061;-51
2021/07/30 00:21:13;;;;;;;10.18;3.42;;;;;;;;;;5001378;28;20041;-51
2021/07/30 00:23:39;;;;;;;10.98;4.20;;;;;;;;;;5004899;28;20045;-53
2021/07/30 00:26:06;;;;;;;10.48;4.43;;;;;;;;;;5018578;28;20041;-49
2021/07/30 00:28:33;;;;;;;7.88;3.80;;;;;;;;;;5005529;28;20045;-50
2021/07/30 00:31:01;;;;;;;11.18;4.63;;;;;;;;;;4999088;28;20053;-53
2021/07/30 00:33:28;;;;;;;9.07;4.10;;;;;;;;;;5003152;28;20042;-52
2021/07/30 00:35:55;;;;;;;11.63;4.22;;;;;;;;;;4997747;28;20045;-51
2021/07/30 00:38:21;;;;;;;12.25;4.32;;;;;;;;;;5002181;28;20026;-52
2021/07/30 00:40:47;;;;;;;13.18;3.70;;;;;;;;;;5000260;28;20043;-51
2021/07/30 00:43:14;;;;;;;6.63;3.15;;;;;;;;;;5002258;28;20038;-50
2021/07/30 00:45:41;;;;;;;14.02;3.78;;;;;;;;;;5001827;28;20061;-48
2021/07/30 00:48:09;;;;;;;11.38;4.05;;;;;;;;;;5001026;28;20065;-52
2021/07/30 00:50:35;;;;;;;11.38;3.90;;;;;;;;;;5005281;28;20052;-50
2021/07/30 00:53:02;;;;;;;13.07;3.40;;;;;;;;;;5019403;28;20057;-47
2021/07/30 00:55:28;;;;;;;9.05;4.18;;;;;;;;;;5003554;28;20045;-52
2021/07/30 00:57:55;;;;;;;10.70;3.40;;;;;;;;;;5018391;28;20049;-49
2021/07/30 01:00:21;;;;;;;8.23;3.63;;;;;;;;;;5003912;28;20044;-48
2021/07/30 01:02:51;;;;;;;10.27;3.90;;;;;;;;;;5002290;28;20030;-51
2021/07/30 01:05:24;;;;;;;13.35;3.67;;;;;;;;;;5025178;28;20033;-49
2021/07/30 01:07:51;;;;;;;11.45;3.83;;;;;;;;;;5004650;28;20044;-49
2021/07/30 01:10:17;;;;;;;13.30;3.67;;;;;;;;;;5023263;28;20046;-51
2021/07/30 01:12:45;;;;;;;9.70;3.88;;;;;;;;;;4996704;28;20086;-51
2021/07/30 01:15:12;;;;;;;11.40;3.65;;;;;;;;;;5003302;28;20042;-52
2021/07/30 01:17:38;;;;;;;11.18;4.35;;;;;;;;;;5004230;28;20030;-52
2021/07/30 01:20:05;;;;;;;8.85;3.75;;;;;;;;;;5005639;28;20049;-48
2021/07/30 01:22:37;;;;;;;10.85;4.10;;;;;;;;;;5001340;28;20061;-51
2021/07/30 01:25:06;;;;;;;16.70;4.05;;;;;;;;;;5004799;28;20042;-52
2021/07/30 01:27:32;;;;;;;10.60;4.28;;;;;;;;;;5000976;28;20049;-50
2021/07/30 01:29:58;;;;;;;14.05;3.85;;;;;;;;;;5003304;28;20037;-50
2021/07/30 01:32:25;;;;;;;8.90;3.95;;;;;;;;;;5019072;28;20053;-49
2021/07/30 01:34:54;;;;;;;9.52;3.42;;;;;;;;;;4999165;28;20050;-52
2021/07/30 01:37:20;;;;;;;11.02;4.13;;;;;;;;;;5002858;28;20128;-51
2021/07/30 01:39:47;;;;;;;11.32;3.92;;;;;;;;;;4995687;28;20057;-50
2021/07/30 01:42:15;;;;;;;12.57;3.95;;;;;;;;;;4999982;28;20043;-51
2021/07/30 01:44:41;;;;;;;10.83;4.10;;;;;;;;;;5014953;28;20042;-51
2021/07/30 01:47:09;;;;;;;10.73;4.32;;;;;;;;;;5004040;28;20038;-49
2021/07/30 01:49:36;;;;;;;11.52;4.00;;;;;;;;;;5001347;28;20115;-50
2021/07/30 01:52:02;;;;;;;12.73;3.97;;;;;;;;;;5022337;28;20120;-51
2021/07/30 01:54:29;;;;;;;12.65;4.65;;;;;;;;;;4998862;28;21318;-49
2021/07/30 01:56:55;;;;;;;9.77;3.83;;;;;;;;;;5003793;28;20128;-49
2021/07/30 01:59:23;;;;;;;12.15;3.63;;;;;;;;;;4999913;28;20122;-51
2021/07/30 02:01:50;;;;;;;9.47;3.90;;;;;;;;;;5020534;28;20045;-50
2021/07/30 02:04:18;;;;;;;7.10;3.30;;;;;;;;;;5018554;28;20053;-49
2021/07/30 02:06:45;;;;;;;9.98;4.15;;;;;;;;;;5003390;28;20046;-52
2021/07/30 02:09:11;;;;;;;9.20;4.10;;;;;;;;;;5000702;28;20043;-51
2021/07/30 02:11:40;;;;;;;13.10;3.78;;;;;;;;;;5019771;28;20046;-49
2021/07/30 02:14:15;;;;;;;8.68;3.72;;;;;;;;;;5020410;28;20115;-51
2021/07/30 02:16:44;;;;;;;11.93;4.10;;;;;;;;;;5000868;28;20118;-47
2021/07/30 02:19:10;;;;;;;9.30;3.72;;;;;;;;;;5003915;28;20090;-51
2021/07/30 02:21:36;;;;;;;10.35;3.97;;;;;;;;;;4991220;28;20038;-52
2021/07/30 02:24:03;;;;;;;12.13;4.25;;;;;;;;;;4999140;28;20054;-48
2021/07/30 02:26:30;;;;;;;15.75;3.83;;;;;;;;;;5003418;28;20106;-48
2021/07/30 02:28:56;;;;;;;9.48;3.60;;;;;;;;;;5006283;28;20040;-52
2021/07/30 02:31:25;;;;;;;9.90;4.00;;;;;;;;;;5020463;28;20058;-50
2021/07/30 02:33:53;;;;;;;9.75;3.85;;;;;;;;;;5006912;28;20056;-52
2021/07/30 02:36:20;;;;;;;10.60;3.80;;;;;;;;;;5002402;28;20034;-48
2021/07/30 02:38:47;;;;;;;11.02;3.67;;;;;;;;;;5008773;28;20271;-50
2021/07/30 02:41:13;;;;;;;11.40;3.80;;;;;;;;;;5023163;28;20045;-50
2021/07/30 02:43:40;;;;;;;10.95;3.63;;;;;;;;;;5027086;28;20126;-48
2021/07/30 02:46:06;;;;;;;8.05;3.38;;;;;;;;;;5000458;28;20125;-52
2021/07/30 02:48:33;;;;;;;11.68;3.67;;;;;;;;;;5001970;28;20157;-50
2021/07/30 02:51:02;;;;;;;12.32;3.25;;;;;;;;;;4987104;28;20048;-51
2021/07/30 02:53:29;;;;;;;8.90;3.53;;;;;;;;;;5005066;28;20041;-52
2021/07/30 02:55:55;;;;;;;13.25;3.50;;;;;;;;;;5021383;28;20069;-53
2021/07/30 02:58:22;;;;;;;11.68;3.08;;;;;;;;;;5006359;28;20038;-48
2021/07/30 03:00:48;;;;;;;11.02;4.07;;;;;;;;;;5004913;28;20045;-49
2021/07/30 03:03:15;;;;;;;9.02;3.53;;;;;;;;;;5000221;28;20026;-50
2021/07/30 03:05:46;;;;;;;11.52;3.47;;;;;;;;;;5002175;28;20042;-50
2021/07/30 03:08:13;;;;;;;9.13;3.42;;;;;;;;;;5003046;28;20160;-51
2021/07/30 03:10:40;;;;;;;11.93;4.20;;;;;;;;;;5002804;28;20058;-51
2021/07/30 03:13:06;;;;;;;10.05;3.92;;;;;;;;;;4993990;28;20050;-51
2021/07/30 03:15:32;;;;;;;12.27;3.85;;;;;;;;;;5003494;28;20042;-47
2021/07/30 03:17:59;;;;;;;13.75;4.00;;;;;;;;;;5002023;28;20078;-48
2021/07/30 03:20:25;;;;;;;8.98;3.53;;;;;;;;;;5006198;28;20129;-52
2021/07/30 03:22:52;;;;;;;8.57;3.40;;;;;;;;;;5020932;28;20052;-51
2021/07/30 03:25:23;;;;;;;8.80;3.20;;;;;;;;;;5005903;28;20049;-52
2021/07/30 03:27:49;;;;;;;9.57;3.47;;;;;;;;;;4999223;28;20098;-48
2021/07/30 03:30:16;;;;;;;10.05;3.60;;;;;;;;;;5001473;28;20054;-50
2021/07/30 03:32:43;;;;;;;7.60;3.40;;;;;;;;;;5002062;28;20041;-51
2021/07/30 03:35:11;;;;;;;12.27;4.00;;;;;;;;;;5005157;28;20029;-48
2021/07/30 03:37:38;;;;;;;10.05;3.95;;;;;;;;;;5002852;28;20042;-51
2021/07/30 03:40:05;;;;;;;10.23;3.92;;;;;;;;;;5007008;28;20062;-50
2021/07/30 03:42:37;;;;;;;8.57;3.75;;;;;;;;;;5005586;28;20086;-49
2021/07/30 03:45:04;;;;;;;9.70;3.55;;;;;;;;;;5000720;28;20065;-50
2021/07/30 03:47:30;;;;;;;9.13;3.42;;;;;;;;;;5001815;28;20046;-49
2021/07/30 03:49:57;;;;;;;12.70;4.18;;;;;;;;;;5003689;28;20041;-49
2021/07/30 03:52:23;;;;;;;10.30;3.85;;;;;;;;;;5005946;28;20034;-52
2021/07/30 03:54:50;;;;;;;12.25;3.45;;;;;;;;;;5000463;28;20346;-49
2021/07/30 03:57:16;;;;;;;11.30;3.45;;;;;;;;;;5006302;28;20037;-52
2021/07/30 03:59:46;;;;;;;10.38;4.05;;;;;;;;;;5001870;28;20058;-46
2021/07/30 04:02:12;;;;;;;12.75;4.47;;;;;;;;;;5004413;28;20057;-51
2021/07/30 04:04:39;;;;;;;11.93;3.88;;;;;;;;;;4999218;28;20041;-51
2021/07/30 04:07:05;;;;;;;15.30;4.47;;;;;;;;;;4999442;28;20046;-50
2021/07/30 04:09:32;;;;;;;12.38;4.30;;;;;;;;;;5000197;28;20038;-49
2021/07/30 04:11:58;;;;;;;10.98;4.45;;;;;;;;;;5004766;28;20120;-47
2021/07/30 04:14:25;;;;;;;12.13;4.13;;;;;;;;;;5002826;28;20046;-48
2021/07/30 04:16:55;;;;;;;9.93;4.10;;;;;;;;;;5006442;28;20103;-48
2021/07/30 04:19:21;;;;;;;14.45;4.50;;;;;;;;;;5002554;28;20045;-51
2021/07/30 04:21:49;;;;;;;9.07;3.67;;;;;;;;;;5004565;28;20037;-52
2021/07/30 04:24:16;;;;;;;11.98;4.28;;;;;;;;;;5002963;28;20053;-52
2021/07/30 04:26:43;;;;;;;13.10;4.45;;;;;;;;;;5003696;28;20029;-47
2021/07/30 04:29:09;;;;;;;9.85;3.70;;;;;;;;;;5005198;28;20131;-52
2021/07/30 04:31:38;;;;;;;13.02;4.32;;;;;;;;;;5018191;28;20101;-51
2021/07/30 04:34:05;;;;;;;14.85;4.07;;;;;;;;;;5003863;28;20049;-48
2021/07/30 04:36:33;;;;;;;10.90;4.37;;;;;;;;;;5014091;28;20042;-52
2021/07/30 04:39:00;;;;;;;9.77;4.30;;;;;;;;;;5002667;28;20034;-50
2021/07/30 04:41:26;;;;;;;11.85;4.13;;;;;;;;;;4998575;28;20049;-48
2021/07/30 04:43:53;;;;;;;12.77;4.60;;;;;;;;;;5005044;28;20053;-50
2021/07/30 04:46:20;;;;;;;11.27;4.47;;;;;;;;;;5015018;28;20061;-50
2021/07/30 04:48:46;;;;;;;8.75;4.50;;;;;;;;;;5001870;28;20116;-50
2021/07/30 04:51:14;;;;;;;11.57;4.05;;;;;;;;;;5000807;28;20050;-53
2021/07/30 04:53:41;;;;;;;12.65;4.35;;;;;;;;;;5005063;28;20124;-51
2021/07/30 04:56:07;;;;;;;11.45;4.22;;;;;;;;;;4997757;28;20042;-50
2021/07/30 04:58:34;;;;;;;12.18;4.32;;;;;;;;;;4985810;28;20042;-49
2021/07/30 05:01:03;;;;;;;13.65;4.57;;;;;;;;;;4981883;28;20065;-49
2021/07/30 05:03:32;;;;;;;18.27;5.00;;;;;;;;;;4985929;28;20042;-51
2021/07/30 05:06:00;;;;;;;;;;;;;;;;;;5001411;28;20047;-50
2021/07/30 05:08:28;;;;;;;7.95;4.15;;;;;;;;;;5021061;28;19921;-51
2021/07/30 05:10:55;;;;;;;16.40;5.03;;;;;;;;;;5004269;28;20042;-47
2021/07/30 05:13:21;;;;;;;16.13;5.53;;;;;;;;;;4997298;28;20061;-48
2021/07/30 05:15:48;;;;;;;15.00;5.65;;;;;;;;;;5003026;28;20046;-49
2021/07/30 05:18:14;;;;;;;13.30;4.70;;;;;;;;;;4998646;28;20057;-49
2021/07/30 05:20:41;;;;;;;18.60;5.20;;;;;;;;;;5002085;28;20054;-49
2021/07/30 05:23:09;;;;;;;12.55;4.53;;;;;;;;;;4996987;28;20042;-50
2021/07/30 05:25:37;;;;;;;23.15;5.35;;;;;;;;;;4997874;28;20046;-51
2021/07/30 05:28:03;;;;;;;14.03;4.40;;;;;;;;;;4998292;28;20054;-47
2021/07/30 05:30:31;;;;;;;15.30;4.80;;;;;;;;;;5017173;28;20056;-48
2021/07/30 05:32:57;;;;;;;13.88;5.03;;;;;;;;;;4996803;28;20057;-51
2021/07/30 05:35:24;;;;;;;13.50;5.18;;;;;;;;;;4999830;28;20089;-50
2021/07/30 05:37:50;;;;;;;12.35;5.63;;;;;;;;;;5014176;28;20064;-51
2021/07/30 05:40:17;;;;;;;12.73;4.95;;;;;;;;;;5000074;28;20056;-50
2021/07/30 05:42:44;;;;;;;15.27;5.28;;;;;;;;;;4992996;28;20131;-49
2021/07/30 05:45:11;;;;;;;11.43;5.33;;;;;;;;;;5002487;28;20068;-48
2021/07/30 05:47:37;;;;;;;16.45;5.50;;;;;;;;;;5000027;28;20046;-48
2021/07/30 05:50:04;;;;;;;17.20;5.60;;;;;;;;;;5021228;28;20050;-45
2021/07/30 05:52:31;;;;;;;13.43;5.35;;;;;;;;;;5023469;28;20037;-49
2021/07/30 05:54:57;;;;;;;20.48;5.35;;;;;;;;;;4996565;28;20074;-53
2021/07/30 05:57:24;;;;;;;14.13;5.75;;;;;;;;;;5017185;28;20085;-47
2021/07/30 05:59:52;;;;;;;17.10;5.63;;;;;;;;;;4998267;28;20046;-52
2021/07/30 06:02:18;;;;;;;16.90;5.97;;;;;;;;;;5001826;28;20053;-50
2021/07/30 06:04:47;;;;;;;12.32;5.88;;;;;;;;;;5003746;28;20030;-50
2021/07/30 06:07:13;;;;;;;20.23;7.65;;;;;;;;;;5017797;28;20058;-47
2021/07/30 06:09:40;;;;;;;16.02;6.28;;;;;;;;;;4998689;28;20046;-49
2021/07/30 06:12:06;;;;;;;15.27;6.03;;;;;;;;;;5022507;28;20034;-49
2021/07/30 06:14:33;;;;;;;14.75;5.35;;;;;;;;;;5015074;28;20034;-49
2021/07/30 06:17:01;;;;;;;14.02;5.05;;;;;;;;;;5026877;28;20034;-50
2021/07/30 06:19:27;;;;;;;17.93;6.23;;;;;;;;;;5004216;28;20038;-49
2021/07/30 06:21:53;;;;;;;17.58;6.85;;;;;;;;;;5006901;28;20048;-50
2021/07/30 06:24:21;;;;;;;15.05;5.90;;;;;;;;;;5006875;28;20026;-47
2021/07/30 06:26:49;;;;;;;16.55;6.57;;;;;;;;;;5009229;28;20038;-50
2021/07/30 06:29:15;;;;;;;20.67;6.43;;;;;;;;;;5022746;28;20042;-50
2021/07/30 06:31:42;;;;;;;18.25;6.20;;;;;;;;;;5026834;28;20044;-46
2021/07/30 06:34:10;;;;;;;19.48;6.32;;;;;;;;;;5028157;28;20115;-52
2021/07/30 06:36:38;;;;;;;17.83;6.80;;;;;;;;;;5005246;28;20038;-48
2021/07/30 06:39:05;;;;;;;11.93;5.57;;;;;;;;;;5008378;28;20030;-47
2021/07/30 06:41:32;;;;;;;16.15;6.30;;;;;;;;;;5008479;28;20026;-46
2021/07/30 06:43:58;;;;;;;15.38;6.22;;;;;;;;;;5008825;28;20061;-49
2021/07/30 06:46:26;;;;;;;16.58;5.88;;;;;;;;;;5002902;28;20042;-52
2021/07/30 06:48:52;;;;;;;15.55;5.75;;;;;;;;;;5007331;28;20053;-48
2021/07/30 06:51:20;;;;;;;17.65;6.07;;;;;;;;;;5015316;28;20050;-50
2021/07/30 06:53:46;;;;;;;17.77;6.70;;;;;;;;;;5010127;28;20049;-47
2021/07/30 06:56:14;;;;;;;17.08;6.05;;;;;;;;;;5006156;28;20037;-50
2021/07/30 06:58:43;;;;;;;16.75;5.78;;;;;;;;;;5008315;28;20037;-49
2021/07/30 07:01:10;;;;;;;19.48;6.65;;;;;;;;;;5004786;28;20034;-53
2021/07/30 07:03:37;;;;;;;17.60;6.07;;;;;;;;;;5025880;28;20036;-49
2021/07/30 07:08:55;;;;;;;15.23;5.95;;;;;;;;;;5009824;28;20049;-51
2021/07/30 07:11:22;;;;;;;13.98;6.25;;;;;;;;;;5023371;28;20034;-48
2021/07/30 07:13:48;;;;;;;13.20;5.22;;;;;;;;;;5008647;28;20034;-46
2021/07/30 07:16:18;;;;;;;14.40;5.45;;;;;;;;;;5023032;28;20253;-50
2021/07/30 07:18:48;;;;;;;14.95;5.28;;;;;;;;;;4990047;28;20111;-51
2021/07/30 07:21:14;;;;;;;15.27;5.05;;;;;;;;;;4987704;28;20041;-49
2021/07/30 07:23:41;;;;;;;21.80;5.78;;;;;;;;;;5026404;28;20050;-49
2021/07/30 07:26:09;;;;;;;14.35;5.55;;;;;;;;;;5008154;28;20038;-51
2021/07/30 07:28:35;;;;;;;13.18;4.55;;;;;;;;;;5005912;28;20046;-50
2021/07/30 07:31:02;;;;;;;12.88;4.90;;;;;;;;;;5009084;28;20066;-51
2021/07/30 07:33:28;;;;;;;14.77;5.07;;;;;;;;;;5019599;28;20038;-47
2021/07/30 07:35:56;;;;;;;11.73;5.30;;;;;;;;;;5008139;28;20046;-52
2021/07/30 07:38:22;;;;;;;14.45;4.65;;;;;;;;;;5005235;28;20056;-47
2021/07/30 07:40:49;;;;;;;14.93;4.80;;;;;;;;;;5009267;28;20125;-48
2021/07/30 07:43:16;;;;;;;12.50;4.68;;;;;;;;;;5018606;28;20065;-48
2021/07/30 07:45:45;;;;;;;14.73;5.27;;;;;;;;;;5007364;28;20124;-47
2021/07/30 07:48:12;;;;;;;14.18;4.28;;;;;;;;;;5000025;28;20060;-51
2021/07/30 07:50:38;;;;;;;23.27;5.25;;;;;;;;;;5006001;28;20116;-50
2021/07/30 07:53:12;;;;;;;16.90;4.78;;;;;;;;;;5002392;28;20030;-49
2021/07/30 07:55:40;;;;;;;13.55;4.00;;;;;;;;;;5003392;28;20022;-51
2021/07/30 07:58:06;;;;;;;17.67;4.60;;;;;;;;;;5009454;28;20046;-50
2021/07/30 08:00:34;;;;;;;13.85;4.47;;;;;;;;;;5008565;28;20279;-49
2021/07/30 08:03:00;;;;;;;18.42;4.15;;;;;;;;;;5005388;28;20065;-49
2021/07/30 08:05:42;;;;;;;13.18;4.40;;;;;;;;;;5005651;28;20039;-51
2021/07/30 08:08:08;;;;;;;10.30;4.10;;;;;;;;;;5002335;28;20045;-48
2021/07/30 08:10:35;;;;;;;11.90;4.00;;;;;;;;;;5006179;28;20038;-49
2021/07/30 08:13:01;;;;;;;12.85;4.40;;;;;;;;;;4998266;28;20049;-52
2021/07/30 08:15:28;;;;;;;11.35;3.97;;;;;;;;;;4999966;28;20050;-51
2021/07/30 08:17:56;;;;;;;16.80;4.50;;;;;;;;;;5004746;28;20027;-52
2021/07/30 08:20:25;;;;;;;16.45;4.05;;;;;;;;;;4987466;28;20125;-47
2021/07/30 08:22:52;;;;;;;17.10;4.13;;;;;;;;;;4985496;28;20047;-50
2021/07/30 08:25:36;;;;;;;15.82;4.25;;;;;;;;;;4995087;28;20033;-51
2021/07/30 08:28:03;;;;;;;12.25;3.67;;;;;;;;;;5005043;28;20037;-52
2021/07/30 08:30:29;;;;;;;11.10;3.83;;;;;;;;;;5003124;28;20038;-50
2021/07/30 08:32:57;;;;;;;10.02;3.92;;;;;;;;;;5001667;28;20050;-49
2021/07/30 08:35:36;;;;;;;10.23;3.47;;;;;;;;;;4999667;28;20045;-51
2021/07/30 08:38:03;;;;;;;11.35;3.95;;;;;;;;;;5004067;28;20112;-51
2021/07/30 08:40:33;;;;;;;10.60;4.15;;;;;;;;;;4999740;28;20057;-48
2021/07/30 08:43:00;;;;;;;11.52;3.40;;;;;;;;;;5017620;28;20116;-51
2021/07/30 08:45:27;;;;;;;12.00;4.00;;;;;;;;;;4991058;28;20034;-51
2021/07/30 08:47:54;;;;;;;14.70;4.18;;;;;;;;;;4992154;28;20053;-48
2021/07/30 08:50:22;;;;;;;10.93;3.60;;;;;;;;;;5005494;28;20053;-50
2021/07/30 08:52:51;;;;;;;14.23;3.15;;;;;;;;;;5003736;28;20052;-52
2021/07/30 08:55:28;;;;;;;10.43;3.50;;;;;;;;;;5000170;28;20026;-52
2021/07/30 08:57:55;;;;;;;9.35;3.72;;;;;;;;;;5003434;28;20124;-50
2021/07/30 09:00:22;;;;;;;9.30;3.80;;;;;;;;;;5002103;28;20045;-52
2021/07/30 09:02:48;;;;;;;13.63;3.15;;;;;;;;;;5004073;28;20050;-50
2021/07/30 09:05:48;;;;;;;12.60;3.55;;;;;;;;;;5002101;28;20041;-51
2021/07/30 09:08:24;;;;;;;11.25;3.47;;;;;;;;;;4909402;29;20040;-51
2021/07/30 09:10:50;;;;;;;8.20;2.85;;;;;;;;;;4927129;29;20042;-52
2021/07/30 09:13:21;;;;;;;10.40;3.22;;;;;;;;;;4980969;28;20045;-49
2021/07/30 09:16:10;;;;;;;11.30;3.38;;;;;;;;;;5001494;28;20034;-49
2021/07/30 09:18:37;;;;;;;6.60;3.00;;;;;;;;;;5004009;28;20058;-46
2021/07/30 09:21:15;;;;;;;11.80;3.33;;;;;;;;;;5001363;28;20044;-47
2021/07/30 09:23:47;;;;;;;9.77;3.13;;;;;;;;;;5002914;28;20045;-51
2021/07/30 09:26:27;;;;;;;15.90;3.28;;;;;;;;;;4998175;28;20074;-52
2021/07/30 09:28:54;;;;;;;8.82;3.03;;;;;;;;;;5019656;28;20042;-50
2021/07/30 09:31:20;;;;;;;10.23;2.80;;;;;;;;;;5001088;28;20042;-51
2021/07/30 09:33:47;;;;;;;8.70;2.97;;;;;;;;;;5004766;28;20042;-49
2021/07/30 09:36:14;;;;;;;12.57;3.50;;;;;;;;;;5004844;28;20034;-51
2021/07/30 09:38:41;;;;;;;12.95;2.95;;;;;;;;;;4981009;28;20053;-51
2021/07/30 09:41:12;;;;;;;10.25;2.92;;;;;;;;;;4985261;28;20041;-51
2021/07/30 09:43:44;;;;;;;12.23;3.22;;;;;;;;;;4997535;28;20035;-50
2021/07/30 09:46:11;;;;;;;7.88;2.95;;;;;;;;;;5003002;28;20049;-49
2021/07/30 09:48:46;;;;;;;12.65;2.97;;;;;;;;;;4990794;28;20051;-51
2021/07/30 09:51:14;;;;;;;9.40;2.70;;;;;;;;;;5000745;28;20035;-46
2021/07/30 09:53:42;;;;;;;9.15;2.50;;;;;;;;;;4992283;28;20038;-51
2021/07/30 09:56:10;;;;;;;13.52;2.85;;;;;;;;;;4995099;28;20064;-51
2021/07/30 09:58:38;;;;;;;14.30;3.20;;;;;;;;;;4996832;28;20065;-47
2021/07/30 10:01:05;;;;;;;9.70;3.00;;;;;;;;;;4992866;28;20061;-52
2021/07/30 10:03:32;;;;;;;8.35;3.55;;;;;;;;;;4993746;28;20050;-52
2021/07/30 10:06:02;;;;;;;7.70;2.78;;;;;;;;;;4983717;28;20031;-52
2021/07/30 10:08:31;;;;;;;9.95;2.83;;;;;;;;;;4977997;28;20071;-53
2021/07/30 10:10:57;;;;;;;7.85;2.65;;;;;;;;;;4983328;28;20043;-53
2021/07/30 10:13:36;;;;;;;8.88;2.80;;;;;;;;;;4978087;28;20063;-53
2021/07/30 10:16:03;;;;;;;;;;;;;;;;;;4983128;28;20070;-52
2021/07/30 10:18:32;;;;;;;13.02;2.35;;;;;;;;;;4978920;28;20034;-51
2021/07/30 10:21:01;;;;;;;8.68;2.72;;;;;;;;;;4997993;28;20062;-52
2021/07/30 10:23:28;;;;;;;6.75;2.53;;;;;;;;;;4978503;28;20038;-52
2021/07/30 10:25:56;;;;;;;7.05;2.97;;;;;;;;;;4984057;28;20170;-54
2021/07/30 10:28:24;;;;;;;6.40;2.78;;;;;;;;;;4983415;28;20045;-52
2021/07/30 10:30:53;;;;;;;7.18;2.85;;;;;;;;;;4996386;28;20053;-52
2021/07/30 10:33:36;;;;;;;6.45;2.65;;;;;;;;;;4983022;28;20050;-53
2021/07/30 10:36:13;;;;;;;5.20;2.35;;;;;;;;;;4993777;28;20038;-52
2021/07/30 10:38:40;;;;;;;8.18;2.30;;;;;;;;;;4993084;28;20099;-52
2021/07/30 10:41:21;;;;;;;8.18;2.53;;;;;;;;;;4977592;28;20116;-49
2021/07/30 10:44:09;;;;;;;8.18;2.40;;;;;;;;;;4981829;28;20043;-53
2021/07/30 10:46:36;;;;;;;10.55;2.50;;;;;;;;;;4985240;28;20051;-50
2021/07/30 10:49:23;;;;;;;8.95;2.65;;;;;;;;;;4985874;28;20050;-52
2021/07/30 10:51:50;;;;;;;8.55;2.85;;;;;;;;;;4985716;28;20170;-50
2021/07/30 10:54:37;;;;;;;8.90;2.88;;;;;;;;;;4999949;28;20031;-53
2021/07/30 10:57:03;;;;;;;8.77;2.72;;;;;;;;;;4983741;28;20039;-49
2021/07/30 10:59:50;;;;;;;8.15;3.03;;;;;;;;;;5000818;28;20039;-48
2021/07/30 11:02:16;;;;;;;8.80;2.92;;;;;;;;;;4998472;28;20042;-52
2021/07/30 11:05:03;;;;;;;8.00;3.05;;;;;;;;;;4999083;28;20049;-52
2021/07/30 11:07:34;;;;;;;14.43;3.13;;;;;;;;;;5008877;28;20034;-53
2021/07/30 11:10:13;;;;;;;7.75;2.83;;;;;;;;;;5009948;28;20038;-49
2021/07/30 11:12:39;;;;;;;5.20;2.15;;;;;;;;;;5018603;28;20125;-49
2021/07/30 11:15:07;;;;;;;9.02;2.83;;;;;;;;;;4995947;28;20064;-50
2021/07/30 11:17:35;;;;;;;7.72;2.35;;;;;;;;;;5010266;28;20097;-51
2021/07/30 11:20:03;;;;;;;9.88;2.30;;;;;;;;;;5001092;28;20057;-53
2021/07/30 11:22:29;;;;;;;10.00;2.20;;;;;;;;;;4998178;28;20053;-53
2021/07/30 11:25:04;;;;;;;6.63;2.38;;;;;;;;;;5013901;28;20030;-52
2021/07/30 11:27:30;;;;;;;4.95;2.00;;;;;;;;;;5012607;28;20116;-51
2021/07/30 11:29:58;;;;;;;6.60;2.85;;;;;;;;;;5016252;28;20035;-49
2021/07/30 11:32:24;;;;;;;3.47;2.00;;;;;;;;;;5011318;28;20061;-53
2021/07/30 11:35:09;;;;;;;8.90;2.50;;;;;;;;;;4997212;28;20038;-53
2021/07/30 11:37:35;;;;;;;5.63;2.63;;;;;;;;;;4999037;28;20109;-51
2021/07/30 11:40:04;;;;;;;7.40;2.30;;;;;;;;;;4997469;28;20053;-53
2021/07/30 11:42:31;;;;;;;12.63;2.67;;;;;;;;;;5012438;28;20042;-50
2021/07/30 11:45:00;;;;;;;8.35;2.15;;;;;;;;;;5018424;28;20050;-51
2021/07/30 11:47:28;;;;;;;7.05;2.50;;;;;;;;;;4997686;28;20053;-52
2021/07/30 11:50:02;;;;;;;6.18;2.40;;;;;;;;;;4999685;28;20038;-52
2021/07/30 11:52:29;;;;;;;4.30;1.85;;;;;;;;;;5015625;28;20041;-53
2021/07/30 11:55:18;;;;;;;4.75;2.10;;;;;;;;;;5017351;28;20124;-53
2021/07/30 11:57:47;;;;;;;8.10;2.33;;;;;;;;;;5013205;28;20061;-49
2021/07/30 12:00:13;;;;;;;;;;;;;;;;;;5007587;28;20048;-53
2021/07/30 12:02:39;;;;;;;4.95;2.10;;;;;;;;;;4995836;28;19917;-52
2021/07/30 12:05:06;;;;;;;6.55;2.08;;;;;;;;;;4995987;28;20046;-53
2021/07/30 12:07:35;;;;;;;6.82;2.35;;;;;;;;;;4995260;28;20128;-53
2021/07/30 12:10:03;;;;;;;5.43;2.45;;;;;;;;;;4997955;28;20045;-52
2021/07/30 12:12:32;;;;;;;7.37;2.30;;;;;;;;;;4992012;28;20035;-52
2021/07/30 12:15:03;;;;;;;6.95;2.50;;;;;;;;;;4994972;28;20316;-51
2021/07/30 12:17:30;;;;;;;9.00;2.42;;;;;;;;;;4996567;28;20038;-53
2021/07/30 12:19:58;;;;;;;5.05;2.08;;;;;;;;;;5001684;28;20066;-51
2021/07/30 12:22:33;;;;;;;9.07;3.03;;;;;;;;;;5012438;28;20157;-52
2021/07/30 12:25:00;;;;;;;12.60;2.78;;;;;;;;;;4996309;28;20052;-51
2021/07/30 12:27:26;;;;;;;10.20;2.63;;;;;;;;;;4993655;28;20055;-53
2021/07/30 12:29:53;;;;;;;7.30;2.58;;;;;;;;;;4994229;28;20057;-55
2021/07/30 12:32:21;;;;;;;4.63;2.17;;;;;;;;;;4995327;28;20034;-50
2021/07/30 12:34:57;;;;;;;5.60;2.35;;;;;;;;;;4989391;28;20043;-50
2021/07/30 12:37:24;;;;;;;6.95;2.33;;;;;;;;;;5000898;28;20042;-49
2021/07/30 12:39:51;;;;;;;6.97;2.20;;;;;;;;;;4989652;28;20042;-49
2021/07/30 12:42:19;;;;;;;6.45;2.30;;;;;;;;;;4992761;28;20034;-52
2021/07/30 12:45:07;;;;;;;8.00;2.10;;;;;;;;;;4995986;28;20050;-50
2021/07/30 12:47:36;;;;;;;4.80;2.22;;;;;;;;;;4998391;28;20096;-52
2021/07/30 12:50:18;;;;;;;4.68;2.30;;;;;;;;;;5013113;28;20048;-52
2021/07/30 12:52:59;;;;;;;5.72;2.38;;;;;;;;;;4996194;28;20079;-52
2021/07/30 12:55:31;;;;;;;9.43;2.10;;;;;;;;;;4992156;28;20118;-54
2021/07/30 12:57:57;;;;;;;8.10;2.17;;;;;;;;;;4995526;28;20118;-53
2021/07/30 13:00:33;;;;;;;5.07;2.60;;;;;;;;;;4998301;28;20037;-51
2021/07/30 13:03:01;;;;;;;7.03;2.50;;;;;;;;;;4988394;28;20037;-53
2021/07/30 13:05:37;;;;;;;11.93;3.30;;;;;;;;;;4998829;28;20042;-53
2021/07/30 13:08:04;;;;;;;6.05;2.70;;;;;;;;;;4995535;28;20038;-53
2021/07/30 13:10:32;;;;;;;5.32;2.45;;;;;;;;;;4992789;28;20113;-54
2021/07/30 13:12:58;;;;;;;7.65;2.30;;;;;;;;;;4995595;28;20026;-53
2021/07/30 13:15:25;;;;;;;4.47;2.22;;;;;;;;;;4991624;28;20044;-53
2021/07/30 13:17:53;;;;;;;6.60;2.40;;;;;;;;;;4991339;28;20046;-51
2021/07/30 13:20:21;;;;;;;7.15;2.22;;;;;;;;;;5006804;28;20054;-52
2021/07/30 13:22:47;;;;;;;5.57;2.15;;;;;;;;;;5013504;28;20066;-52
2021/07/30 13:25:15;;;;;;;7.32;2.30;;;;;;;;;;4996687;28;20043;-52
2021/07/30 13:27:42;;;;;;;7.55;2.72;;;;;;;;;;4996745;28;20038;-51
2021/07/30 13:30:09;;;;;;;4.70;2.40;;;;;;;;;;4999561;28;20042;-52
2021/07/30 13:32:35;;;;;;;7.25;2.75;;;;;;;;;;5011786;28;20041;-52
2021/07/30 13:35:08;;;;;;;6.38;2.25;;;;;;;;;;5001270;28;20062;-53
2021/07/30 13:37:35;;;;;;;7.00;2.88;;;;;;;;;;4992111;28;20062;-53
2021/07/30 13:40:02;;;;;;;6.00;2.55;;;;;;;;;;4994493;28;20065;-51
2021/07/30 13:42:28;;;;;;;6.00;2.50;;;;;;;;;;4993143;28;20173;-51
2021/07/30 13:44:55;;;;;;;9.50;2.90;;;;;;;;;;4995021;28;20042;-51
2021/07/30 13:47:22;;;;;;;8.32;2.70;;;;;;;;;;4991358;28;20053;-51
2021/07/30 13:49:49;;;;;;;8.68;2.88;;;;;;;;;;4996502;28;20053;-53
2021/07/30 13:52:15;;;;;;;8.38;3.97;;;;;;;;;;4991366;28;20049;-54
2021/07/30 13:54:45;;;;;;;6.85;2.85;;;;;;;;;;5000077;28;20068;-50
2021/07/30 13:57:11;;;;;;;5.38;2.67;;;;;;;;;;4996351;28;20123;-53
2021/07/30 13:59:38;;;;;;;6.93;2.70;;;;;;;;;;4994300;28;20046;-54
2021/07/30 14:02:05;;;;;;;7.80;2.63;;;;;;;;;;5009121;28;20042;-51
2021/07/30 14:04:34;;;;;;;6.72;2.25;;;;;;;;;;5000988;28;20049;-51
2021/07/30 14:07:01;;;;;;;6.80;2.72;;;;;;;;;;4996445;28;20046;-53
2021/07/30 14:09:27;;;;;;;4.72;2.40;;;;;;;;;;4996999;28;20043;-54
2021/07/30 14:11:55;;;;;;;6.43;3.10;;;;;;;;;;5015384;28;20042;-51
2021/07/30 14:14:22;;;;;;;8.13;3.33;;;;;;;;;;4997447;28;20056;-52
2021/07/30 14:16:52;;;;;;;8.43;3.72;;;;;;;;;;4995392;28;20046;-52
2021/07/30 14:19:18;;;;;;;16.23;3.88;;;;;;;;;;4990320;28;20105;-52
2021/07/30 14:21:45;;;;;;;9.10;3.78;;;;;;;;;;4999988;28;20035;-53
2021/07/30 14:24:11;;;;;;;9.38;4.28;;;;;;;;;;4998674;28;20050;-52
2021/07/30 14:26:38;;;;;;;8.02;3.97;;;;;;;;;;5002137;28;20042;-51
2021/07/30 14:29:06;;;;;;;10.10;4.45;;;;;;;;;;5013419;28;20054;-50
2021/07/30 14:31:32;;;;;;;11.77;4.18;;;;;;;;;;4996963;28;20045;-52
2021/07/30 14:33:59;;;;;;;11.48;3.70;;;;;;;;;;4997542;28;20046;-52
2021/07/30 14:36:31;;;;;;;8.35;4.13;;;;;;;;;;4997994;28;20050;-52
2021/07/30 14:38:58;;;;;;;8.68;3.97;;;;;;;;;;4993110;28;20173;-52
2021/07/30 14:41:24;;;;;;;7.38;3.90;;;;;;;;;;4996066;28;20057;-54
2021/07/30 14:43:51;;;;;;;7.90;4.15;;;;;;;;;;5013932;28;20188;-53
2021/07/30 14:46:32;;;;;;;8.70;4.10;;;;;;;;;;5003133;28;20034;-53